Time;durP1;ratioP1;P1;durP2;ratioP2;P2;SDS_P1;SDS_P2;PMS_P1;PMS_P2;Temp;Humidity;BMP_temperature;BMP_pressure;BME280_temperature;BME280_humidity;BME280_pressure;Samples;Min_cycle;Max_cycle;Signal;HPM_P1;HPM_P2
2022/11/21 00:01:50;;;;;;;0.40;0.40;;;3.60;99.90;;;;;;5007416;28;20045;-67
2022/11/21 00:04:16;;;;;;;0.20;0.20;;;3.60;99.90;;;;;;5011167;28;20045;-66
2022/11/21 00:06:42;;;;;;;0.82;0.82;;;3.60;99.90;;;;;;5008632;28;20056;-66
2022/11/21 00:09:07;;;;;;;0.45;0.45;;;3.60;99.90;;;;;;5011566;28;20128;-66
2022/11/21 00:11:33;;;;;;;0.55;0.55;;;3.60;99.90;;;;;;5004780;28;20124;-67
2022/11/21 00:13:58;;;;;;;1.83;1.42;;;3.60;99.90;;;;;;5009341;28;20068;-67
2022/11/21 00:16:24;;;;;;;0.20;0.20;;;3.60;99.90;;;;;;5000052;28;20382;-67
2022/11/21 00:18:49;;;;;;;2.25;2.05;;;3.50;99.90;;;;;;5015482;28;20044;-67
2022/11/21 00:21:17;;;;;;;0.10;0.10;;;3.60;99.90;;;;;;5026822;28;20041;-67
2022/11/21 00:23:43;;;;;;;1.00;0.95;;;3.60;99.90;;;;;;5010332;28;20064;-67
2022/11/21 00:26:10;;;;;;;0.55;0.55;;;3.50;99.90;;;;;;5007749;28;20046;-67
2022/11/21 00:28:36;;;;;;;0.98;0.80;;;3.60;99.90;;;;;;5006410;28;20041;-67
2022/11/21 00:31:03;;;;;;;0.10;0.10;;;3.60;99.90;;;;;;5012592;28;20046;-67
2022/11/21 00:33:29;;;;;;;0.40;0.40;;;3.60;99.90;;;;;;4989923;28;20054;-67
2022/11/21 00:35:54;;;;;;;2.78;2.60;;;3.50;99.90;;;;;;4996447;28;20042;-67
2022/11/21 00:38:20;;;;;;;0.30;0.30;;;3.60;99.90;;;;;;4994412;28;20157;-67
2022/11/21 00:40:45;;;;;;;0.75;0.75;;;3.50;99.90;;;;;;5011535;28;20128;-67
2022/11/21 00:43:11;;;;;;;2.25;1.55;;;3.50;99.90;;;;;;5007818;28;20056;-67
2022/11/21 00:45:38;;;;;;;0.52;0.52;;;3.50;99.90;;;;;;5006802;28;20462;-67
2022/11/21 00:48:04;;;;;;;0.20;0.20;;;3.50;99.90;;;;;;5012597;28;20053;-67
2022/11/21 00:50:30;;;;;;;0.65;0.65;;;3.50;99.90;;;;;;5014748;28;20048;-67
2022/11/21 00:52:56;;;;;;;0.32;0.32;;;3.50;99.90;;;;;;5009739;28;20042;-67
2022/11/21 00:55:23;;;;;;;0.47;0.47;;;3.50;99.90;;;;;;5013362;28;20456;-67
2022/11/21 00:57:49;;;;;;;0.10;0.10;;;3.50;99.90;;;;;;5011193;28;20038;-67
2022/11/21 01:00:15;;;;;;;0.45;0.40;;;3.50;99.90;;;;;;5010654;28;20076;-67
2022/11/21 01:02:40;;;;;;;0.20;0.20;;;3.50;99.90;;;;;;5012605;28;20042;-67
2022/11/21 01:05:06;;;;;;;9.25;1.45;;;3.50;99.90;;;;;;5011705;28;20045;-67
2022/11/21 01:07:33;;;;;;;0.60;0.60;;;3.50;99.90;;;;;;5011868;28;20233;-67
2022/11/21 01:09:58;;;;;;;0.75;0.63;;;3.50;99.90;;;;;;5010896;28;20046;-66
2022/11/21 01:12:24;;;;;;;0.17;0.17;;;3.50;99.90;;;;;;5008997;28;20398;-67
2022/11/21 01:14:49;;;;;;;0.32;0.32;;;3.50;99.90;;;;;;5010364;28;20410;-67
2022/11/21 01:17:15;;;;;;;1.10;1.10;;;3.50;99.90;;;;;;5010669;28;20500;-67
2022/11/21 01:19:41;;;;;;;5.57;1.05;;;3.50;99.90;;;;;;5014415;28;20440;-67
2022/11/21 01:22:06;;;;;;;0.10;0.10;;;3.50;99.90;;;;;;5011998;28;20556;-67
2022/11/21 01:24:32;;;;;;;0.50;0.50;;;3.50;99.90;;;;;;5011329;28;20045;-67
2022/11/21 01:26:57;;;;;;;0.32;0.32;;;3.50;99.90;;;;;;5007825;28;20038;-66
2022/11/21 01:29:23;;;;;;;0.10;0.10;;;3.50;99.90;;;;;;4982840;28;20061;-67
2022/11/21 01:31:49;;;;;;;0.45;0.40;;;3.40;99.90;;;;;;5013909;28;20037;-67
2022/11/21 01:34:15;;;;;;;0.20;0.20;;;3.40;99.90;;;;;;5007632;28;20062;-67
2022/11/21 01:36:41;;;;;;;1.65;1.55;;;3.40;99.90;;;;;;5002172;28;20050;-67
2022/11/21 01:39:07;;;;;;;1.25;0.47;;;3.40;99.90;;;;;;5011411;28;20041;-67
2022/11/21 01:41:41;;;;;;;0.38;0.38;;;3.30;99.90;;;;;;5009019;28;20139;-67
2022/11/21 01:44:20;;;;;;;2.63;1.75;;;3.30;99.90;;;;;;5000523;28;20406;-67
2022/11/21 01:46:46;;;;;;;2.03;1.30;;;3.30;99.90;;;;;;4978472;28;20041;-66
2022/11/21 01:49:23;;;;;;;0.40;0.40;;;3.30;99.90;;;;;;5011586;28;20513;-67
2022/11/21 01:52:00;;;;;;;5.47;1.75;;;3.30;99.90;;;;;;5003034;28;20038;-67
2022/11/21 01:54:41;;;;;;;1.30;0.75;;;3.20;99.90;;;;;;5010257;28;20478;-67
2022/11/21 01:57:20;;;;;;;2.08;1.98;;;3.10;99.90;;;;;;4994221;28;20050;-67
2022/11/21 01:59:54;;;;;;;6.03;2.85;;;3.00;99.90;;;;;;5001672;28;20054;-67
2022/11/21 02:02:21;;;;;;;;;;;2.90;99.90;;;;;;4993486;28;20042;-66
2022/11/21 02:04:48;;;;;;;2.25;2.05;;;2.90;99.90;;;;;;4992410;28;20388;-67
2022/11/21 02:07:16;;;;;;;0.73;0.73;;;2.90;99.90;;;;;;4998112;28;20030;-67
2022/11/21 02:09:46;;;;;;;0.85;0.82;;;2.90;99.90;;;;;;5006210;28;20058;-66
2022/11/21 02:12:30;;;;;;;0.35;0.35;;;2.80;99.90;;;;;;5010822;28;20042;-67
2022/11/21 02:14:57;;;;;;;0.30;0.30;;;2.70;99.90;;;;;;5005758;28;20432;-66
2022/11/21 02:17:22;;;;;;;0.45;0.45;;;2.70;99.90;;;;;;5006810;28;20041;-67
2022/11/21 02:19:57;;;;;;;0.47;0.47;;;2.60;99.90;;;;;;5013724;28;20092;-66
2022/11/21 02:22:31;;;;;;;0.57;0.57;;;2.60;99.90;;;;;;5005550;28;20080;-67
2022/11/21 02:25:05;;;;;;;0.28;0.28;;;2.50;99.90;;;;;;4996076;28;20056;-67
2022/11/21 02:27:31;;;;;;;0.75;0.75;;;2.50;99.90;;;;;;5001363;28;20077;-67
2022/11/21 02:29:57;;;;;;;0.50;0.50;;;2.40;99.90;;;;;;5009038;28;20867;-67
2022/11/21 02:32:30;;;;;;;0.50;0.30;;;2.40;99.90;;;;;;4994482;28;20049;-67
2022/11/21 02:34:55;;;;;;;3.25;3.05;;;2.40;99.90;;;;;;5006451;28;20109;-67
2022/11/21 02:37:21;;;;;;;1.00;0.93;;;2.30;99.90;;;;;;5003216;28;20470;-67
2022/11/21 02:39:47;;;;;;;0.90;0.90;;;2.20;99.90;;;;;;5009485;28;20129;-67
2022/11/21 02:42:27;;;;;;;0.40;0.40;;;2.20;99.90;;;;;;5009013;28;20069;-67
2022/11/21 02:44:58;;;;;;;1.38;1.35;;;2.10;99.90;;;;;;5006731;28;20477;-67
2022/11/21 02:47:25;;;;;;;0.50;0.50;;;2.10;99.90;;;;;;5009945;28;20108;-67
2022/11/21 02:49:58;;;;;;;1.13;1.05;;;2.10;99.90;;;;;;5009498;28;20079;-67
2022/11/21 02:52:24;;;;;;;0.85;0.85;;;2.10;99.90;;;;;;5002971;28;20048;-67
2022/11/21 02:54:49;;;;;;;0.20;0.20;;;2.00;99.90;;;;;;5003698;28;20041;-67
2022/11/21 02:57:15;;;;;;;1.02;1.02;;;2.00;99.90;;;;;;5010139;28;20092;-67
2022/11/21 02:59:41;;;;;;;0.52;0.52;;;2.00;99.90;;;;;;5003737;28;20425;-67
2022/11/21 03:02:06;;;;;;;9.07;1.25;;;2.00;99.90;;;;;;5013523;28;20038;-67
2022/11/21 03:04:32;;;;;;;0.75;0.75;;;2.00;99.90;;;;;;5010279;28;20061;-67
2022/11/21 03:06:57;;;;;;;0.55;0.55;;;2.00;99.90;;;;;;5000115;28;20208;-67
2022/11/21 03:09:23;;;;;;;0.40;0.40;;;2.00;99.90;;;;;;4998402;28;20049;-66
2022/11/21 03:11:48;;;;;;;5.65;1.13;;;1.90;99.90;;;;;;5007280;28;20042;-66
2022/11/21 03:14:14;;;;;;;1.80;1.15;;;1.90;99.90;;;;;;5010002;28;20112;-67
2022/11/21 03:16:39;;;;;;;1.10;1.02;;;1.90;99.90;;;;;;5009420;28;20038;-67
2022/11/21 03:19:05;;;;;;;0.65;0.65;;;1.90;99.90;;;;;;5006440;28;20151;-66
2022/11/21 03:21:30;;;;;;;6.28;2.25;;;1.90;99.90;;;;;;5025033;28;20419;-66
2022/11/21 03:23:56;;;;;;;0.20;0.20;;;1.90;99.90;;;;;;5009230;28;20129;-66
2022/11/21 03:26:21;;;;;;;0.60;0.60;;;1.90;99.90;;;;;;5003403;28;20528;-67
2022/11/21 03:28:47;;;;;;;0.35;0.35;;;2.00;99.90;;;;;;4991472;28;20053;-67
2022/11/21 03:31:13;;;;;;;3.55;1.27;;;2.00;99.90;;;;;;5008177;28;20050;-67
2022/11/21 03:33:38;;;;;;;0.73;0.73;;;2.00;99.90;;;;;;4996209;28;20054;-67
2022/11/21 03:36:04;;;;;;;1.98;1.85;;;2.10;99.90;;;;;;5008879;28;20512;-66
2022/11/21 03:38:29;;;;;;;0.50;0.50;;;2.10;99.90;;;;;;4997987;28;20042;-67
2022/11/21 03:40:55;;;;;;;0.20;0.20;;;2.10;99.90;;;;;;5007069;28;20509;-66
2022/11/21 03:43:20;;;;;;;0.45;0.45;;;2.10;99.90;;;;;;5009543;28;20049;-67
2022/11/21 03:45:46;;;;;;;0.20;0.20;;;2.20;99.90;;;;;;5006539;28;20053;-66
2022/11/21 03:48:13;;;;;;;1.35;1.08;;;2.10;99.90;;;;;;5010886;28;20049;-67
2022/11/21 03:50:42;;;;;;;0.40;0.40;;;2.20;99.90;;;;;;5015532;28;20144;-66
2022/11/21 03:53:08;;;;;;;0.55;0.55;;;2.20;99.90;;;;;;4997853;28;20050;-67
2022/11/21 03:55:33;;;;;;;1.33;1.15;;;2.30;99.90;;;;;;4990780;28;20561;-66
2022/11/21 03:57:59;;;;;;;0.20;0.20;;;2.30;99.90;;;;;;5006310;28;20054;-67
2022/11/21 04:00:25;;;;;;;0.68;0.68;;;2.30;99.90;;;;;;5013375;28;20050;-67
2022/11/21 04:02:50;;;;;;;2.10;1.27;;;2.30;99.90;;;;;;4994388;28;20038;-67
2022/11/21 04:05:16;;;;;;;0.85;0.85;;;2.30;99.90;;;;;;4983154;28;20106;-67
2022/11/21 04:07:42;;;;;;;1.13;0.98;;;2.30;99.90;;;;;;5007181;28;20221;-67
2022/11/21 04:10:08;;;;;;;0.80;0.80;;;2.30;99.90;;;;;;4989977;28;20049;-67
2022/11/21 04:12:33;;;;;;;0.22;0.22;;;2.30;99.90;;;;;;5004408;28;20046;-67
2022/11/21 04:14:59;;;;;;;1.05;1.05;;;2.30;99.90;;;;;;4981681;28;20057;-66
2022/11/21 04:17:24;;;;;;;0.68;0.68;;;2.40;99.90;;;;;;5008825;28;20121;-66
2022/11/21 04:19:50;;;;;;;0.63;0.63;;;2.30;99.90;;;;;;5002442;28;20052;-67
2022/11/21 04:22:15;;;;;;;0.28;0.28;;;2.30;99.90;;;;;;5004591;28;20080;-67
2022/11/21 04:24:41;;;;;;;1.65;1.58;;;2.20;99.90;;;;;;5000986;28;20042;-67
2022/11/21 04:27:06;;;;;;;0.75;0.73;;;2.20;99.90;;;;;;5008125;28;20042;-66
2022/11/21 04:29:32;;;;;;;6.93;1.65;;;2.20;99.90;;;;;;5008413;28;20429;-66
2022/11/21 04:31:57;;;;;;;0.28;0.28;;;2.10;99.90;;;;;;5011539;28;20034;-66
2022/11/21 04:34:23;;;;;;;1.58;1.50;;;2.00;99.90;;;;;;4996064;28;20146;-66
2022/11/21 04:36:48;;;;;;;0.30;0.30;;;2.00;99.90;;;;;;4998945;28;20046;-66
2022/11/21 04:39:14;;;;;;;0.30;0.30;;;2.00;99.90;;;;;;4995419;28;20035;-66
2022/11/21 04:41:40;;;;;;;0.17;0.17;;;2.00;99.90;;;;;;4995076;28;20508;-66
2022/11/21 04:44:05;;;;;;;5.68;5.03;;;1.90;99.90;;;;;;5012112;28;20064;-66
2022/11/21 04:46:31;;;;;;;1.50;1.40;;;1.90;99.90;;;;;;5009390;28;20087;-66
2022/11/21 04:48:56;;;;;;;1.55;1.45;;;1.90;99.90;;;;;;5007003;28;20085;-66
2022/11/21 04:51:22;;;;;;;0.63;0.60;;;1.80;99.90;;;;;;5012058;28;20053;-66
2022/11/21 04:53:47;;;;;;;1.85;1.75;;;1.80;99.90;;;;;;5010687;28;20050;-66
2022/11/21 04:56:15;;;;;;;0.30;0.30;;;1.70;99.90;;;;;;5011014;28;20042;-66
2022/11/21 04:58:44;;;;;;;1.38;1.27;;;1.70;99.90;;;;;;4994852;28;20053;-66
2022/11/21 05:01:10;;;;;;;1.58;1.38;;;1.60;99.90;;;;;;5014350;28;20038;-66
2022/11/21 05:03:35;;;;;;;0.60;0.60;;;1.60;99.90;;;;;;5012493;28;20113;-67
2022/11/21 05:06:01;;;;;;;0.40;0.40;;;1.60;99.90;;;;;;5009591;28;20460;-67
2022/11/21 05:08:27;;;;;;;0.38;0.38;;;1.70;99.90;;;;;;4993815;28;20077;-66
2022/11/21 05:13:36;;;;;;;0.17;0.17;;;1.70;99.90;;;;;;5000710;28;20034;-66
2022/11/21 05:16:02;;;;;;;0.40;0.40;;;1.70;99.90;;;;;;5007151;28;20490;-67
2022/11/21 05:18:28;;;;;;;0.95;0.45;;;1.70;99.90;;;;;;5010588;28;20539;-66
2022/11/21 05:20:53;;;;;;;0.10;0.10;;;1.70;99.90;;;;;;5021451;28;20045;-67
2022/11/21 05:23:19;;;;;;;0.65;0.65;;;1.60;99.90;;;;;;5006455;28;20050;-66
2022/11/21 05:25:44;;;;;;;1.33;1.27;;;1.60;99.90;;;;;;5009457;28;20044;-66
2022/11/21 05:28:10;;;;;;;2.28;2.17;;;1.70;99.90;;;;;;5007232;28;20095;-66
2022/11/21 05:30:36;;;;;;;0.50;0.50;;;1.60;99.90;;;;;;5003497;28;20156;-66
2022/11/21 05:33:02;;;;;;;0.25;0.25;;;1.50;99.90;;;;;;5010461;28;20588;-67
2022/11/21 05:35:27;;;;;;;4.22;3.05;;;1.50;99.90;;;;;;5011018;28;20050;-66
2022/11/21 05:37:57;;;;;;;0.90;0.90;;;1.50;99.90;;;;;;5008842;28;20367;-66
2022/11/21 05:40:24;;;;;;;0.40;0.40;;;1.50;99.90;;;;;;5010782;28;20544;-67
2022/11/21 05:45:34;;;;;;;0.60;0.60;;;1.60;99.90;;;;;;4996342;28;20046;-66
2022/11/21 05:47:59;;;;;;;2.05;1.92;;;1.60;99.90;;;;;;5001379;28;20033;-66
2022/11/21 05:50:25;;;;;;;1.45;1.33;;;1.60;99.90;;;;;;4995045;28;20049;-66
2022/11/21 05:52:50;;;;;;;1.63;1.52;;;1.50;99.90;;;;;;5008960;28;20038;-66
2022/11/21 05:55:16;;;;;;;0.63;0.63;;;1.50;99.90;;;;;;5008029;28;20506;-66
2022/11/21 05:57:42;;;;;;;1.92;1.75;;;1.50;99.90;;;;;;4995345;28;20462;-65
2022/11/21 06:00:08;;;;;;;0.77;0.77;;;1.50;99.90;;;;;;5014689;28;20045;-66
2022/11/21 06:05:18;;;;;;;1.42;1.38;;;1.50;99.90;;;;;;4994973;28;20049;-66
2022/11/21 06:07:43;;;;;;;0.70;0.70;;;1.50;99.90;;;;;;5008428;28;20053;-66
2022/11/21 06:10:09;;;;;;;1.08;1.08;;;1.50;99.90;;;;;;4981874;28;20069;-66
2022/11/21 06:12:35;;;;;;;4.10;2.85;;;1.50;99.90;;;;;;5010323;28;20398;-66
2022/11/21 06:15:00;;;;;;;2.03;0.98;;;1.60;99.90;;;;;;5006881;28;20041;-66
2022/11/21 06:17:26;;;;;;;1.05;1.05;;;1.50;99.90;;;;;;5010176;28;20042;-66
2022/11/21 06:19:51;;;;;;;0.52;0.52;;;1.50;99.90;;;;;;4999472;28;20038;-67
2022/11/21 06:22:17;;;;;;;0.68;0.68;;;1.50;99.90;;;;;;4995441;28;20050;-66
2022/11/21 06:24:42;;;;;;;0.20;0.20;;;1.40;99.90;;;;;;5010652;28;20140;-66
2022/11/21 06:27:08;;;;;;;0.38;0.38;;;1.40;99.90;;;;;;5009122;28;20104;-66
2022/11/21 06:29:33;;;;;;;1.00;1.00;;;1.40;99.90;;;;;;5010169;28;20053;-67
2022/11/21 06:31:59;;;;;;;0.30;0.30;;;1.40;99.90;;;;;;5014212;28;20060;-66
2022/11/21 06:34:25;;;;;;;1.08;1.08;;;1.40;99.90;;;;;;5000722;28;20145;-66
2022/11/21 06:36:51;;;;;;;2.28;1.08;;;1.40;99.90;;;;;;4997439;28;20053;-66
2022/11/21 06:39:17;;;;;;;0.55;0.55;;;1.30;99.90;;;;;;4996453;28;20046;-66
2022/11/21 06:41:42;;;;;;;0.20;0.20;;;1.20;99.90;;;;;;5004842;28;20045;-66
2022/11/21 06:44:08;;;;;;;2.72;2.47;;;1.20;99.90;;;;;;4992183;28;20049;-66
2022/11/21 06:46:33;;;;;;;0.68;0.68;;;1.10;99.90;;;;;;4990361;28;20049;-66
2022/11/21 06:48:59;;;;;;;0.40;0.40;;;1.10;99.90;;;;;;4998875;28;20100;-66
2022/11/21 06:51:25;;;;;;;0.43;0.43;;;1.10;99.90;;;;;;5006190;28;20504;-66
2022/11/21 06:53:55;;;;;;;1.27;1.27;;;1.10;99.90;;;;;;5023311;28;20771;-66
2022/11/21 06:56:22;;;;;;;3.75;1.55;;;1.10;99.90;;;;;;4991517;28;20046;-66
2022/11/21 06:58:48;;;;;;;0.40;0.40;;;1.10;99.90;;;;;;5006099;28;20046;-66
2022/11/21 07:01:13;;;;;;;3.85;1.42;;;1.10;99.90;;;;;;5002936;28;20104;-66
2022/11/21 07:03:39;;;;;;;0.57;0.57;;;1.20;99.90;;;;;;4992848;28;20050;-66
2022/11/21 07:06:05;;;;;;;0.93;0.93;;;1.20;99.90;;;;;;4996115;28;20042;-66
2022/11/21 07:08:34;;;;;;;2.42;2.22;;;1.30;99.90;;;;;;5004836;28;20038;-66
2022/11/21 07:11:06;;;;;;;3.72;2.28;;;1.30;99.90;;;;;;5007089;28;20042;-66
2022/11/21 07:13:31;;;;;;;13.25;3.03;;;1.40;99.90;;;;;;5008616;28;20049;-67
2022/11/21 07:16:06;;;;;;;1.02;1.02;;;1.40;99.90;;;;;;5009279;28;20042;-66
2022/11/21 07:18:32;;;;;;;1.10;1.10;;;1.40;99.90;;;;;;5000689;28;20076;-67
2022/11/21 07:21:00;;;;;;;0.45;0.45;;;1.40;99.90;;;;;;5028942;28;20038;-66
2022/11/21 07:23:26;;;;;;;1.10;1.10;;;1.40;99.90;;;;;;5022511;28;20046;-66
2022/11/21 07:25:52;;;;;;;0.30;0.30;;;1.50;99.90;;;;;;5000674;28;20041;-66
2022/11/21 07:28:17;;;;;;;1.20;1.17;;;1.60;99.90;;;;;;4997160;28;20418;-67
2022/11/21 07:30:43;;;;;;;0.35;0.35;;;1.60;99.90;;;;;;5003827;28;20081;-67
2022/11/21 07:33:08;;;;;;;0.55;0.55;;;1.70;99.90;;;;;;5009710;28;20062;-66
2022/11/21 07:35:35;;;;;;;0.40;0.40;;;1.70;99.90;;;;;;5008727;28;20049;-66
2022/11/21 07:38:01;;;;;;;1.08;1.08;;;1.70;99.90;;;;;;5007451;28;20073;-66
2022/11/21 07:40:28;;;;;;;1.23;1.17;;;1.80;99.90;;;;;;5007035;28;20409;-66
2022/11/21 07:43:00;;;;;;;0.20;0.20;;;1.80;99.90;;;;;;5020995;28;20076;-67
2022/11/21 07:45:25;;;;;;;0.40;0.40;;;1.90;99.90;;;;;;5002886;28;20034;-66
2022/11/21 07:48:02;;;;;;;0.63;0.63;;;1.90;99.90;;;;;;4991835;28;20050;-66
2022/11/21 07:50:28;;;;;;;0.68;0.68;;;2.00;99.90;;;;;;5001649;28;20168;-66
2022/11/21 07:53:02;;;;;;;0.20;0.20;;;2.00;99.90;;;;;;4997443;28;20120;-66
2022/11/21 07:55:28;;;;;;;0.30;0.30;;;2.00;99.90;;;;;;5001764;28;20137;-66
2022/11/21 07:58:03;;;;;;;0.60;0.60;;;2.00;99.90;;;;;;4988073;28;20397;-66
2022/11/21 08:00:30;;;;;;;1.20;1.15;;;2.00;99.90;;;;;;5005197;28;20046;-66
2022/11/21 08:02:56;;;;;;;0.40;0.40;;;2.10;99.90;;;;;;5002465;28;20429;-66
2022/11/21 08:05:22;;;;;;;0.30;0.30;;;2.10;99.90;;;;;;5005848;28;20050;-66
2022/11/21 08:07:48;;;;;;;5.82;2.05;;;2.10;99.90;;;;;;5005303;28;20560;-66
2022/11/21 08:10:14;;;;;;;2.78;0.82;;;2.00;99.90;;;;;;5008017;28;20224;-67
2022/11/21 08:12:40;;;;;;;1.63;1.52;;;2.00;99.90;;;;;;5002878;28;20065;-66
2022/11/21 08:15:06;;;;;;;0.40;0.40;;;2.00;99.90;;;;;;5004318;28;20135;-66
2022/11/21 08:17:32;;;;;;;0.65;0.65;;;2.00;99.90;;;;;;5007424;28;20478;-67
2022/11/21 08:20:01;;;;;;;0.55;0.55;;;2.00;99.90;;;;;;5006234;28;20046;-66
2022/11/21 08:22:27;;;;;;;1.17;1.17;;;2.00;99.90;;;;;;5014761;28;20046;-67
2022/11/21 08:24:53;;;;;;;0.85;0.85;;;2.00;99.90;;;;;;5007705;28;20037;-67
2022/11/21 08:27:20;;;;;;;0.68;0.68;;;2.00;99.90;;;;;;5010465;28;20117;-67
2022/11/21 08:29:46;;;;;;;1.60;1.23;;;2.00;99.90;;;;;;5012151;28;20046;-67
2022/11/21 08:32:12;;;;;;;0.90;0.90;;;2.10;99.90;;;;;;4997008;28;20045;-67
2022/11/21 08:34:38;;;;;;;0.82;0.82;;;2.00;99.90;;;;;;5007788;28;20050;-67
2022/11/21 08:37:03;;;;;;;0.40;0.40;;;2.00;99.90;;;;;;5000225;28;20053;-66
2022/11/21 08:39:29;;;;;;;0.45;0.45;;;2.00;99.90;;;;;;5007849;28;20091;-67
2022/11/21 08:42:02;;;;;;;0.15;0.15;;;2.10;99.90;;;;;;5000349;28;20057;-66
2022/11/21 08:44:29;;;;;;;0.57;0.57;;;2.10;99.90;;;;;;4987145;28;20057;-66
2022/11/21 08:46:55;;;;;;;4.20;1.08;;;2.10;99.90;;;;;;5008014;28;21496;-66
2022/11/21 08:49:21;;;;;;;1.23;1.23;;;2.10;99.90;;;;;;4991220;28;20073;-67
2022/11/21 08:51:48;;;;;;;0.30;0.30;;;2.20;99.90;;;;;;5009756;28;20122;-66
2022/11/21 08:54:15;;;;;;;2.00;1.90;;;2.20;99.90;;;;;;5003933;28;20054;-66
2022/11/21 08:56:40;;;;;;;0.77;0.77;;;2.20;99.90;;;;;;4999104;28;20034;-66
2022/11/21 08:59:06;;;;;;;0.28;0.28;;;2.20;99.90;;;;;;5009679;28;20108;-66
2022/11/21 09:01:32;;;;;;;0.10;0.10;;;2.20;99.90;;;;;;5008187;28;20052;-66
2022/11/21 09:03:57;;;;;;;0.50;0.50;;;2.30;99.90;;;;;;5011417;28;20045;-66
2022/11/21 09:06:23;;;;;;;0.15;0.15;;;2.30;99.90;;;;;;4988789;28;20042;-66
2022/11/21 09:08:48;;;;;;;0.98;0.98;;;2.30;99.90;;;;;;5006703;28;20099;-67
2022/11/21 09:11:14;;;;;;;0.20;0.20;;;2.20;99.90;;;;;;5013920;28;20096;-66
2022/11/21 09:13:39;;;;;;;1.80;1.70;;;2.30;99.90;;;;;;5002902;28;20042;-67
2022/11/21 09:18:52;;;;;;;0.50;0.50;;;2.30;99.90;;;;;;5011952;28;20054;-67
2022/11/21 09:21:19;;;;;;;0.50;0.50;;;2.30;99.90;;;;;;5011461;28;20452;-67
2022/11/21 09:23:44;;;;;;;0.55;0.55;;;2.30;99.90;;;;;;5011909;28;20042;-67
2022/11/21 09:26:10;;;;;;;1.27;1.15;;;2.30;99.90;;;;;;5006314;28;20549;-67
2022/11/21 09:28:36;;;;;;;0.22;0.22;;;2.30;99.90;;;;;;4980114;28;20054;-67
2022/11/21 09:31:03;;;;;;;1.63;0.68;;;2.40;99.90;;;;;;5003503;28;20050;-67
2022/11/21 09:33:29;;;;;;;0.20;0.20;;;2.40;99.90;;;;;;5010620;28;20097;-66
2022/11/21 09:35:58;;;;;;;0.10;0.10;;;2.40;99.90;;;;;;4991733;28;20045;-67
2022/11/21 09:38:25;;;;;;;0.25;0.25;;;2.40;99.90;;;;;;5011509;28;20112;-66
2022/11/21 09:40:54;;;;;;;2.50;0.75;;;2.50;99.90;;;;;;4999228;28;20046;-67
2022/11/21 09:43:44;;;;;;;0.13;0.13;;;2.60;99.90;;;;;;5024036;28;20045;-67
2022/11/21 09:46:12;;;;;;;0.17;0.17;;;2.60;99.90;;;;;;5031471;28;20056;-67
2022/11/21 09:48:52;;;;;;;0.40;0.40;;;2.70;99.90;;;;;;5023827;28;20042;-67
2022/11/21 09:51:20;;;;;;;0.63;0.63;;;2.70;99.90;;;;;;5009331;28;20125;-66
2022/11/21 09:54:10;;;;;;;0.15;0.15;;;2.60;99.90;;;;;;4993963;28;20042;-67
2022/11/21 09:56:39;;;;;;;0.90;0.90;;;2.60;99.90;;;;;;5008397;28;20065;-67
2022/11/21 09:59:20;;;;;;;1.45;1.40;;;2.50;99.90;;;;;;4994910;28;20440;-67
2022/11/21 10:01:46;;;;;;;0.30;0.30;;;2.60;99.90;;;;;;5009739;28;20037;-67
2022/11/21 10:04:12;;;;;;;1.95;1.85;;;2.50;99.90;;;;;;5009631;28;20060;-67
2022/11/21 10:06:54;;;;;;;0.57;0.57;;;2.60;99.90;;;;;;5004970;28;20042;-67
2022/11/21 10:09:26;;;;;;;0.20;0.20;;;2.70;99.90;;;;;;4981845;28;20051;-67
2022/11/21 10:12:35;;;;;;;0.10;0.10;;;2.70;99.90;;;;;;5022590;28;20041;-67
2022/11/21 10:15:01;;;;;;;0.35;0.35;;;2.70;99.90;;;;;;5022280;28;20417;-68
2022/11/21 10:17:59;;;;;;;0.10;0.10;;;2.70;99.90;;;;;;4982216;28;20044;-68
2022/11/21 10:20:31;;;;;;;0.60;0.60;;;2.80;99.90;;;;;;5001321;28;20064;-68
2022/11/21 10:23:38;;;;;;;0.30;0.30;;;3.00;99.90;;;;;;5009995;28;20050;-67
2022/11/21 10:26:34;;;;;;;0.10;0.10;;;3.00;99.90;;;;;;4992594;28;20046;-68
2022/11/21 10:29:21;;;;;;;0.40;0.40;;;3.00;99.90;;;;;;4992177;28;20413;-67
2022/11/21 10:31:48;;;;;;;0.10;0.10;;;3.10;99.90;;;;;;5009054;28;20044;-67
2022/11/21 10:34:19;;;;;;;0.47;0.47;;;3.10;99.90;;;;;;5004048;28;20564;-67
2022/11/21 10:36:50;;;;;;;0.10;0.10;;;3.20;99.90;;;;;;4992933;28;20046;-67
2022/11/21 10:39:42;;;;;;;0.10;0.10;;;3.20;99.90;;;;;;5009933;28;20046;-67
2022/11/21 10:42:35;;;;;;;0.30;0.30;;;3.30;99.90;;;;;;4999728;28;20065;-67
2022/11/21 10:45:18;;;;;;;13.80;1.48;;;3.30;99.90;;;;;;5008063;28;20084;-68
2022/11/21 10:47:46;;;;;;;0.15;0.15;;;3.40;99.90;;;;;;5009546;28;20052;-68
2022/11/21 10:50:17;;;;;;;0.45;0.45;;;3.40;99.90;;;;;;4991711;28;20045;-67
2022/11/21 10:52:56;;;;;;;0.20;0.20;;;3.40;99.90;;;;;;5024433;28;20057;-67
2022/11/21 10:55:21;;;;;;;0.60;0.60;;;3.50;99.90;;;;;;5010386;28;20567;-67
2022/11/21 10:57:51;;;;;;;0.75;0.75;;;3.50;99.90;;;;;;5024797;28;20049;-68
2022/11/21 11:00:25;;;;;;;0.10;0.10;;;3.50;99.90;;;;;;4988641;28;20073;-68
2022/11/21 11:02:54;;;;;;;0.32;0.32;;;3.60;99.90;;;;;;4992095;28;20081;-67
2022/11/21 11:05:28;;;;;;;0.20;0.20;;;3.70;99.90;;;;;;5009190;28;20042;-67
2022/11/21 11:08:11;;;;;;;0.10;0.10;;;3.70;99.90;;;;;;4987937;28;20081;-67
2022/11/21 11:10:45;;;;;;;0.10;0.10;;;3.70;99.90;;;;;;5004587;28;20069;-67
2022/11/21 11:13:32;;;;;;;0.20;0.20;;;3.80;99.90;;;;;;4999915;28;20049;-67
2022/11/21 11:16:04;;;;;;;0.20;0.20;;;3.80;99.90;;;;;;5004835;28;20046;-68
2022/11/21 11:18:33;;;;;;;0.52;0.43;;;3.90;99.90;;;;;;5009619;28;20073;-68
2022/11/21 11:21:39;;;;;;;0.10;0.10;;;4.00;99.90;;;;;;5008383;28;20052;-68
2022/11/21 11:24:20;;;;;;;0.30;0.30;;;4.10;99.90;;;;;;4981751;28;20054;-67
2022/11/21 11:26:45;;;;;;;0.10;0.10;;;4.10;99.90;;;;;;5009221;28;20124;-68
2022/11/21 11:29:15;;;;;;;0.30;0.30;;;4.30;99.90;;;;;;5012253;28;20176;-69
2022/11/21 11:31:51;;;;;;;0.30;0.30;;;4.30;99.90;;;;;;4997565;28;20086;-68
2022/11/21 11:34:17;;;;;;;0.30;0.30;;;4.40;99.90;;;;;;5013038;28;20104;-67
2022/11/21 11:36:46;;;;;;;0.40;0.40;;;4.50;99.90;;;;;;5014105;28;20065;-67
2022/11/21 11:39:37;;;;;;;0.30;0.30;;;4.50;99.90;;;;;;5012538;28;20046;-67
2022/11/21 11:48:18;;;;;;;0.65;0.65;;;4.70;99.90;;;;;;4994507;28;20046;-67
2022/11/21 11:50:55;;;;;;;2.65;1.48;;;4.90;99.90;;;;;;5001800;28;20049;-67
2022/11/21 11:53:35;;;;;;;0.30;0.30;;;4.90;99.90;;;;;;5011987;28;20489;-67
2022/11/21 11:56:12;;;;;;;0.10;0.10;;;5.00;99.90;;;;;;5014003;28;20080;-67
2022/11/21 11:58:44;;;;;;;0.10;0.10;;;5.10;99.90;;;;;;4997851;28;20057;-67
2022/11/21 12:01:36;;;;;;;0.10;0.10;;;5.10;99.90;;;;;;5007574;28;20548;-67
2022/11/21 12:04:18;;;;;;;0.20;0.20;;;5.20;99.90;;;;;;4995454;28;20058;-68
2022/11/21 12:07:05;;;;;;;0.55;0.55;;;5.20;99.90;;;;;;5012428;28;20046;-67
2022/11/21 12:09:51;;;;;;;0.80;0.80;;;5.40;99.90;;;;;;5000195;28;20647;-67
2022/11/21 12:12:35;;;;;;;0.43;0.43;;;5.50;99.90;;;;;;5014038;28;20081;-67
2022/11/21 12:18:19;;;;;;;0.52;0.52;;;5.60;99.90;;;;;;4994859;28;20051;-68
2022/11/21 12:21:14;;;;;;;0.10;0.10;;;5.60;99.90;;;;;;5012096;28;20054;-68
2022/11/21 12:23:49;;;;;;;0.45;0.45;;;5.50;99.90;;;;;;4996844;28;20039;-68
2022/11/21 12:26:39;;;;;;;0.20;0.20;;;5.50;99.90;;;;;;4994129;28;20042;-68
2022/11/21 12:29:50;;;;;;;0.10;0.10;;;5.40;99.90;;;;;;5001051;28;20051;-68
2022/11/21 12:33:03;;;;;;;0.55;0.55;;;5.50;99.90;;;;;;5013391;28;20042;-67
2022/11/21 12:35:28;;;;;;;0.10;0.10;;;5.50;99.90;;;;;;4992437;28;20617;-67
2022/11/21 12:38:28;;;;;;;0.10;0.10;;;5.40;99.90;;;;;;5009418;28;20045;-67
2022/11/21 12:44:28;;;;;;;0.20;0.20;;;5.40;99.90;;;;;;5004539;28;20049;-67
2022/11/21 12:46:57;;;;;;;0.10;0.10;;;5.50;99.90;;;;;;5013291;28;20038;-67
2022/11/21 12:55:38;;;;;;;0.20;0.20;;;5.40;99.90;;;;;;4994428;28;20054;-68
2022/11/21 12:58:31;;;;;;;0.10;0.10;;;5.40;99.90;;;;;;5012701;28;20050;-67
2022/11/21 13:01:17;;;;;;;0.35;0.35;;;5.30;99.90;;;;;;4977568;28;20061;-65
2022/11/21 13:03:57;;;;;;;1.20;0.75;;;5.50;99.90;;;;;;5004305;28;20050;-65
2022/11/21 13:06:32;;;;;;;0.30;0.30;;;5.40;99.90;;;;;;5009364;28;20107;-65
2022/11/21 13:09:01;;;;;;;1.02;1.02;;;5.50;99.90;;;;;;5006370;28;20137;-64
2022/11/21 13:11:57;;;;;;;0.10;0.10;;;5.50;99.90;;;;;;5029822;28;20145;-64
2022/11/21 13:14:32;;;;;;;0.50;0.50;;;5.50;99.90;;;;;;5006402;28;20056;-65
2022/11/21 13:17:13;;;;;;;0.10;0.10;;;5.50;99.90;;;;;;4998054;28;20211;-64
2022/11/21 13:19:59;;;;;;;0.10;0.10;;;5.50;99.90;;;;;;4992601;28;20046;-65
2022/11/21 13:22:49;;;;;;;0.43;0.43;;;5.40;99.90;;;;;;4977030;28;20055;-65
2022/11/21 13:25:34;;;;;;;0.47;0.47;;;5.50;99.90;;;;;;4982315;28;20113;-65
2022/11/21 13:28:28;;;;;;;0.45;0.45;;;5.60;99.90;;;;;;4994319;28;20042;-65
2022/11/21 13:30:59;;;;;;;0.22;0.22;;;5.60;99.90;;;;;;4985471;28;20054;-65
2022/11/21 13:33:34;;;;;;;0.10;0.10;;;5.50;99.90;;;;;;4992895;28;20200;-65
2022/11/21 13:36:10;;;;;;;0.10;0.10;;;5.50;99.90;;;;;;5011042;28;20240;-66
2022/11/21 13:38:54;;;;;;;0.40;0.40;;;5.50;99.90;;;;;;4993508;28;20053;-65
2022/11/21 13:44:30;;;;;;;0.35;0.35;;;5.50;99.90;;;;;;5009859;28;20057;-65
2022/11/21 13:47:00;;;;;;;1.73;1.42;;;5.30;99.90;;;;;;4995871;28;20041;-65